Portada
Imágenes satélite Pronóstico 10 díasClimaPredicción Marítima Ciclones Rayo AeropuertosFAQ Noticias Acerca
El tiempo : Europa África América del Norte América del Sur Asia Australia-Oceanía Otros
Idiomas Contacto

Humberside, Inglaterra

latitud: 53-35N, longitud: 000-21W, altitud: 31 m


METAR: EGNJ 062350Z AUTO 18013KT 9999 DZ ///////// 16/13 Q1011 RERA
TAF: EGNJ 062001Z 0621/0706 18008KT 9999 SCT025 PROB30 TEMPO 0621/0706 8000 -RA BKN014

Hora: 01:14 (00:14 UTC)

Observación

El informe se hizo hace 24 minutos, a las 23:50 UTC
Viento 13 kt del sur
Temperatura 16°C
Humedad 82%
Presión 1011 hPa
Visibilidad 10 km o más
llovizna

Cambiar las unidades

Pronóstico

El informe se hizo hace 4 horas y 13 minutos, a las 20:01 UTC
Pronóstico válido del 06 a las 21 UTC al 07 a las 06 UTC
Viento 8 kt del sur
Visibilidad 10 km o más
Nubes dispersas a una altura de 2500 ft
Probabilidad 30% :
Temporalmente
del 06 a las 21 UTC al 07 a las 06 UTC
Visibilidad: 8000 m
Cielo nuboso a una altura de 1400 ft
lluvia ligera
La información que se ofrece en estas páginas está sujeta a una cláusula de exención de responsabilidad
El tiempo : Europa África América del Norte América del Sur Asia Australia-Oceanía Otros
Imágenes satélite Pronóstico 10 díasClimaPredicción Marítima Ciclones Rayo AeropuertosFAQ Idiomas Contacto Noticias Acerca